createdAt,value
2022-09-05T05:56:19.636Z,24.80
2022-09-05T06:02:08.121Z,24.47
2022-09-05T06:05:14.997Z,24.74
2022-09-05T06:12:11.677Z,25.36
2022-09-05T06:14:59.033Z,27.13
2022-09-05T06:15:01.923Z,26.62
2022-09-05T06:21:44.112Z,26.78
2022-09-05T06:23:38.782Z,25.93
2022-09-05T06:26:30.543Z,25.00
2022-09-05T06:29:21.658Z,23.89
2022-09-05T06:32:03.142Z,23.18
2022-09-05T06:34:42.977Z,22.39
2022-09-05T06:37:25.019Z,21.99
2022-09-05T06:40:13.909Z,21.71
2022-09-05T06:43:04.836Z,21.31
2022-09-05T06:46:11.055Z,21.01
2022-09-05T06:49:30.010Z,20.92
2022-09-05T06:52:29.435Z,20.86
2022-09-05T06:55:35.978Z,20.71
2022-09-05T06:58:42.417Z,20.43
2022-09-05T07:01:11.374Z,20.36
2022-09-05T07:05:14.720Z,20.38
2022-09-05T07:07:07.711Z,20.36
2022-09-05T07:09:46.122Z,20.33
2022-09-05T07:12:19.767Z,20.27
2022-09-05T07:14:48.176Z,20.30
2022-09-05T07:18:08.535Z,20.38
2022-09-05T07:21:13.536Z,20.55
2022-09-05T07:24:06.541Z,20.73
2022-09-05T07:26:54.733Z,20.90
2022-09-05T07:29:35.083Z,20.92
2022-09-05T07:32:07.461Z,20.96
2022-09-05T07:34:37.680Z,21.02
2022-09-05T07:37:23.302Z,20.89
2022-09-05T07:40:04.053Z,20.83
2022-09-05T07:43:09.946Z,20.79
2022-09-05T07:45:52.298Z,20.73
2022-09-05T07:56:46.627Z,20.99
2022-09-05T07:56:54.564Z,21.17
2022-09-05T07:57:31.425Z,21.61
2022-09-05T08:00:25.504Z,21.89
2022-09-05T08:03:00.100Z,22.20
2022-09-05T08:05:37.605Z,22.50
2022-09-05T08:08:22.882Z,22.59
2022-09-05T08:11:22.629Z,22.60
2022-09-05T08:14:27.057Z,22.66
2022-09-05T08:16:46.757Z,22.85
2022-09-05T08:20:40.660Z,22.77
2022-09-05T08:23:26.044Z,22.44
2022-09-05T08:26:11.338Z,22.35
2022-09-05T08:29:11.999Z,22.28
2022-09-05T08:32:10.539Z,22.22
2022-09-05T08:35:03.757Z,22.20
2022-09-05T08:37:34.995Z,22.21
2022-09-05T08:40:19.365Z,22.13
2022-09-05T08:45:01.107Z,22.03
2022-09-05T08:46:42.888Z,22.04
2022-09-05T08:49:00.703Z,21.93
2022-09-05T08:52:03.534Z,21.84
2022-09-05T08:55:05.796Z,21.60
2022-09-05T08:58:13.772Z,21.46
2022-09-05T09:00:55.091Z,21.47
2022-09-05T09:03:56.411Z,21.58
2022-09-05T09:06:59.463Z,21.67
2022-09-05T09:10:10.722Z,21.72
2022-09-05T09:13:17.621Z,21.85
2022-09-05T09:16:00.481Z,21.99
2022-09-05T09:19:01.199Z,21.97
2022-09-05T09:21:43.989Z,21.99
2022-09-05T09:24:47.045Z,22.12
2022-09-05T09:28:43.706Z,22.14
2022-09-05T09:31:07.087Z,22.24
2022-09-05T09:33:43.006Z,22.38
2022-09-05T09:36:35.961Z,22.37
2022-09-05T09:39:38.296Z,22.49
2022-09-05T09:42:51.068Z,22.66
2022-09-05T09:45:27.676Z,22.86
2022-09-05T09:48:10.757Z,23.23
2022-09-05T09:50:59.413Z,23.45
2022-09-05T09:53:49.962Z,23.58
2022-09-05T09:56:35.992Z,23.65
2022-09-05T09:59:07.135Z,23.63
2022-09-05T10:01:52.279Z,23.70
2022-09-05T10:10:35.579Z,23.49
2022-09-05T10:10:53.992Z,23.30
2022-09-05T10:11:40.159Z,23.34
2022-09-05T10:14:42.169Z,23.43
2022-09-05T10:17:27.365Z,23.62
2022-09-05T10:20:32.429Z,23.72
2022-09-05T10:23:21.605Z,23.63
2022-09-05T10:26:20.871Z,23.61
2022-09-05T10:29:37.163Z,23.41
2022-09-05T10:34:23.463Z,23.65
2022-09-05T10:35:23.761Z,23.87
2022-09-05T10:38:11.962Z,23.91
2022-09-05T10:41:06.665Z,23.92
2022-09-05T10:43:34.838Z,23.96
2022-09-05T10:46:54.001Z,23.95
2022-09-05T10:49:31.193Z,23.81
2022-09-05T10:52:34.349Z,23.53
2022-09-05T10:55:39.985Z,23.16
2022-09-05T10:58:52.502Z,23.04
2022-09-05T11:02:28.440Z,23.02
2022-09-05T11:04:52.925Z,22.90
2022-09-05T11:07:29.450Z,22.85
2022-09-05T11:10:13.548Z,22.69
2022-09-05T11:13:01.287Z,22.48
2022-09-05T11:16:03.800Z,22.27
2022-09-05T11:18:56.030Z,22.03
2022-09-05T11:22:05.249Z,21.90
2022-09-05T11:24:59.956Z,21.80
2022-09-05T11:27:46.314Z,21.83
2022-09-05T11:30:20.283Z,21.96
2022-09-05T11:39:47.883Z,21.88
2022-09-05T11:39:53.152Z,21.91
2022-09-05T11:39:55.849Z,21.93
2022-09-05T11:42:10.554Z,21.95
2022-09-05T11:45:07.823Z,22.00
2022-09-05T11:48:03.356Z,22.05
2022-09-05T11:50:46.891Z,22.07
2022-09-05T11:53:42.559Z,22.04
2022-09-05T11:56:28.949Z,22.07
2022-09-05T11:59:15.284Z,22.06
2022-09-05T12:02:24.874Z,21.99
2022-09-05T12:05:50.087Z,22.00
2022-09-05T12:08:04.904Z,22.08
2022-09-05T12:10:47.150Z,22.13
2022-09-05T12:13:34.759Z,22.15
2022-09-05T12:16:17.841Z,22.10
2022-09-05T12:19:14.188Z,22.06
2022-09-05T12:22:09.044Z,22.00
2022-09-05T12:29:09.596Z,21.88
2022-09-05T12:33:24.263Z,22.03
2022-09-05T12:36:06.729Z,22.16
2022-09-05T12:40:51.944Z,22.27
2022-09-05T12:41:36.952Z,22.36
2022-09-05T12:42:10.209Z,21.87
2022-09-05T12:44:29.908Z,22.51
2022-09-05T12:46:04.759Z,22.65
2022-09-05T12:48:44.248Z,22.70
2022-09-05T12:51:46.039Z,22.73
2022-09-05T12:54:32.688Z,22.65
2022-09-05T13:03:02.854Z,22.65
2022-09-05T13:03:09.051Z,22.69
2022-09-05T13:03:28.879Z,22.87
2022-09-05T13:06:06.091Z,22.97
2022-09-05T13:08:59.746Z,23.12
2022-09-05T13:14:46.573Z,23.26
2022-09-05T13:15:20.073Z,23.42
2022-09-05T13:18:10.535Z,23.54
2022-09-05T13:20:46.473Z,23.55
2022-09-05T13:23:23.691Z,23.60
2022-09-05T13:26:10.391Z,23.57
2022-09-05T13:29:08.427Z,23.42
2022-09-05T13:37:58.801Z,23.08
2022-09-05T13:38:20.635Z,23.28
2022-09-05T13:38:30.785Z,22.95
2022-09-05T13:40:40.335Z,22.77
2022-09-05T13:43:15.240Z,22.59
2022-09-05T13:46:19.566Z,22.49
2022-09-05T13:51:44.101Z,22.27
2022-09-05T13:54:36.614Z,22.33
2022-09-05T13:57:32.559Z,22.45
2022-09-05T14:00:27.324Z,22.57
2022-09-05T14:03:38.948Z,22.67
2022-09-05T14:06:46.713Z,22.68
2022-09-05T14:12:00.254Z,22.68
2022-09-05T14:20:42.878Z,22.34
2022-09-05T14:23:16.135Z,22.11
2022-09-05T14:25:49.947Z,21.81
2022-09-05T14:28:39.133Z,21.43
2022-09-05T14:34:52.015Z,21.16
2022-09-05T14:38:00.595Z,20.44
2022-09-05T14:38:00.828Z,20.78
2022-09-05T14:40:57.784Z,20.16
2022-09-05T14:43:40.232Z,19.97
2022-09-05T14:46:45.569Z,19.79
2022-09-05T14:49:40.679Z,19.67
2022-09-05T14:52:15.900Z,19.58
2022-09-05T15:02:38.309Z,19.46
2022-09-05T15:02:45.354Z,19.45
2022-09-05T15:03:12.807Z,19.48
2022-09-05T15:05:50.276Z,19.50
2022-09-05T15:09:28.613Z,19.52
2022-09-05T15:12:23.426Z,19.55
2022-09-05T15:14:13.196Z,19.56
2022-09-05T15:16:45.891Z,19.58
2022-09-05T15:20:05.262Z,19.59
2022-09-05T15:22:41.964Z,19.54
2022-09-05T15:25:17.282Z,19.49
2022-09-05T15:27:47.217Z,19.47
2022-09-05T15:30:35.109Z,19.45
2022-09-05T15:33:25.617Z,19.45
2022-09-05T15:35:56.179Z,19.45
2022-09-05T15:38:35.183Z,19.42
2022-09-05T15:41:24.518Z,19.35
2022-09-05T15:44:02.526Z,19.34
2022-09-05T15:46:42.562Z,19.30
2022-09-05T15:49:25.938Z,19.28
2022-09-05T15:51:57.554Z,19.19
2022-09-05T15:54:39.192Z,19.15
2022-09-05T15:57:18.133Z,19.07
2022-09-05T15:59:49.796Z,18.96
2022-09-05T16:02:31.380Z,18.80
2022-09-05T16:10:27.337Z,18.63
2022-09-05T16:10:39.376Z,18.52
2022-09-05T16:14:28.407Z,18.32
2022-09-05T16:23:15.376Z,18.19
2022-09-05T16:23:30.259Z,18.00
2022-09-05T16:23:41.462Z,17.85
2022-09-05T16:26:25.440Z,17.76
2022-09-05T16:29:07.145Z,17.62
2022-09-05T16:31:40.709Z,17.57
2022-09-05T16:34:16.216Z,17.51
2022-09-05T16:37:08.572Z,17.42
2022-09-05T16:39:43.759Z,17.38
2022-09-05T16:42:23.981Z,17.32
2022-09-05T16:45:17.597Z,17.27
2022-09-05T16:48:14.509Z,17.15
2022-09-05T16:50:51.948Z,17.08
2022-09-05T16:53:30.565Z,17.09
2022-09-05T16:56:12.610Z,17.06
2022-09-05T16:59:01.527Z,17.08
2022-09-05T17:02:11.857Z,17.07
2022-09-05T17:05:05.805Z,17.04
2022-09-05T17:07:55.093Z,16.94
2022-09-05T17:10:58.199Z,16.85
2022-09-05T17:14:12.350Z,16.72
2022-09-05T17:17:02.285Z,16.74
2022-09-05T17:20:06.172Z,16.67
2022-09-05T17:29:20.394Z,16.58
2022-09-05T17:29:33.614Z,16.50
2022-09-05T17:30:32.207Z,16.45
2022-09-05T17:31:54.315Z,16.40
2022-09-05T17:35:17.587Z,16.35
2022-09-05T17:38:22.145Z,16.26
2022-09-05T17:41:09.002Z,16.15
2022-09-05T17:43:41.571Z,16.07
2022-09-05T17:46:38.446Z,16.02
2022-09-05T17:49:43.385Z,15.92
2022-09-05T17:52:22.438Z,15.86
2022-09-05T17:54:52.653Z,15.77
2022-09-05T17:57:29.030Z,15.75
2022-09-05T18:00:40.832Z,15.68
2022-09-05T18:03:11.257Z,15.63
2022-09-05T18:06:23.910Z,15.61
2022-09-05T18:09:04.673Z,15.56
2022-09-05T18:13:31.343Z,15.58
2022-09-05T18:15:33.072Z,15.63
2022-09-05T18:21:21.720Z,15.73
2022-09-05T18:24:11.943Z,15.78
2022-09-05T18:27:15.090Z,15.79
2022-09-05T18:30:26.162Z,15.82
2022-09-05T18:33:56.122Z,15.83
2022-09-05T18:36:34.049Z,15.69
2022-09-05T18:39:29.577Z,15.65
2022-09-05T18:42:26.630Z,15.62
2022-09-05T18:44:59.419Z,15.60
2022-09-05T18:47:53.249Z,15.57
2022-09-05T18:50:46.903Z,15.56
2022-09-05T18:53:35.128Z,15.65
2022-09-05T18:56:20.454Z,15.68
2022-09-05T19:03:19.921Z,15.68
2022-09-05T19:06:02.858Z,15.70
2022-09-05T19:08:53.503Z,15.69
2022-09-05T19:11:53.230Z,15.67
2022-09-05T19:14:38.865Z,15.66
2022-09-05T19:17:12.128Z,15.64
2022-09-05T19:20:32.182Z,15.64
2022-09-05T19:23:10.096Z,15.61
2022-09-05T19:25:45.389Z,15.61
2022-09-05T19:30:37.972Z,15.61
2022-09-05T19:36:57.051Z,15.58
2022-09-05T19:36:57.053Z,15.52
2022-09-05T19:37:29.052Z,15.48
2022-09-05T19:47:31.417Z,15.46
2022-09-05T19:47:42.803Z,15.45
2022-09-05T19:47:47.382Z,15.42
2022-09-05T19:48:34.802Z,15.41
2022-09-05T19:51:16.840Z,15.35
2022-09-05T19:54:04.840Z,15.16
2022-09-05T19:56:45.741Z,15.10
2022-09-05T19:59:23.046Z,15.06
2022-09-05T20:01:52.515Z,15.06
2022-09-05T20:04:21.157Z,15.08
2022-09-05T20:06:50.484Z,15.06
2022-09-05T20:09:22.732Z,15.06
2022-09-05T20:11:53.372Z,15.01
2022-09-05T20:14:32.973Z,15.04
2022-09-05T20:17:20.058Z,15.04
2022-09-05T20:19:49.524Z,15.04
2022-09-05T20:22:49.805Z,15.02
2022-09-05T20:25:35.800Z,15.02
2022-09-05T20:28:10.095Z,14.99
2022-09-05T20:30:42.476Z,14.98
2022-09-05T20:33:24.717Z,14.97
2022-09-05T20:42:09.292Z,14.95
2022-09-05T20:43:15.200Z,14.92
2022-09-05T20:43:21.347Z,14.92
2022-09-05T20:44:50.675Z,14.88
2022-09-05T20:52:34.948Z,14.84
2022-09-05T20:54:14.083Z,14.79
2022-09-05T20:54:16.795Z,14.73
2022-09-05T20:56:33.746Z,14.71
2022-09-05T20:59:01.539Z,14.68
2022-09-05T21:01:32.768Z,14.64
2022-09-05T21:04:05.054Z,14.61
2022-09-05T21:06:34.618Z,14.58
2022-09-05T21:09:08.692Z,14.57
2022-09-05T21:11:36.298Z,14.56
2022-09-05T21:14:05.236Z,14.54
2022-09-05T21:16:39.009Z,14.53
2022-09-05T21:19:07.913Z,14.48
2022-09-05T21:21:36.009Z,14.46
2022-09-05T21:24:28.738Z,14.45
2022-09-05T21:27:22.505Z,14.41
2022-09-05T21:29:59.423Z,14.37
2022-09-05T21:32:38.219Z,14.28
2022-09-05T21:35:34.355Z,14.23
2022-09-05T21:37:58.986Z,14.18
2022-09-05T21:40:26.543Z,14.15
2022-09-05T21:47:38.292Z,14.14
2022-09-05T21:47:47.530Z,14.13
2022-09-05T21:48:32.991Z,14.10
2022-09-05T21:51:14.212Z,14.07
2022-09-05T21:59:11.625Z,13.99
2022-09-05T21:59:26.137Z,13.96
2022-09-05T21:59:38.872Z,13.90
2022-09-05T22:02:16.794Z,13.84
2022-09-05T22:04:44.524Z,13.75
2022-09-05T22:07:32.310Z,13.68
2022-09-05T22:10:06.151Z,13.59
2022-09-05T22:12:39.253Z,13.53
2022-09-05T22:15:27.694Z,13.47
2022-09-05T22:18:08.136Z,13.40
2022-09-05T22:20:53.478Z,13.37
2022-09-05T22:23:36.226Z,13.31
2022-09-05T22:26:06.866Z,13.28
2022-09-05T22:28:37.730Z,13.20
2022-09-05T22:31:07.157Z,13.17
2022-09-05T22:33:36.541Z,13.16
2022-09-05T22:36:04.785Z,13.10
2022-09-05T22:38:33.445Z,13.06
2022-09-05T22:41:00.839Z,13.02
2022-09-05T22:43:34.680Z,12.97
2022-09-05T22:46:03.693Z,12.92
2022-09-05T22:48:32.197Z,12.85
2022-09-05T22:50:59.770Z,12.81
2022-09-05T22:53:27.096Z,12.80
2022-09-05T22:56:02.122Z,12.80
2022-09-05T22:58:30.066Z,12.76
2022-09-05T23:01:01.227Z,12.72
2022-09-05T23:03:28.802Z,12.68
2022-09-05T23:06:08.081Z,12.66
2022-09-05T23:08:36.549Z,12.62
2022-09-05T23:11:08.557Z,12.61
2022-09-05T23:13:36.274Z,12.56
2022-09-05T23:16:03.897Z,12.50
2022-09-05T23:18:37.233Z,12.42
2022-09-05T23:21:08.076Z,12.35
2022-09-05T23:23:36.905Z,12.28
2022-09-05T23:26:06.333Z,12.18
2022-09-05T23:28:33.911Z,12.14
2022-09-05T23:31:02.313Z,12.09
2022-09-05T23:33:30.412Z,12.04
2022-09-05T23:36:07.673Z,11.97
2022-09-05T23:38:35.430Z,11.92
2022-09-05T23:41:05.483Z,11.85
2022-09-05T23:43:34.568Z,11.77
2022-09-05T23:46:03.130Z,11.74
2022-09-05T23:48:30.699Z,11.74
2022-09-05T23:51:13.338Z,11.74
2022-09-05T23:53:40.922Z,11.70
2022-09-05T23:56:09.821Z,11.62
2022-09-05T23:58:38.747Z,11.61
